Time;durP1;ratioP1;P1;durP2;ratioP2;P2;SDS_P1;SDS_P2;PMS_P1;PMS_P2;Temp;Humidity;BMP_temperature;BMP_pressure;BME280_temperature;BME280_humidity;BME280_pressure;Samples;Min_cycle;Max_cycle;Signal;HPM_P1;HPM_P2
2024/01/08 00:00:44;;;;;;;11.98;10.05;;;10.30;99.90;;;;;;4935708;29;20036;-87
2024/01/08 00:03:10;;;;;;;11.90;10.05;;;10.20;99.90;;;;;;4951846;29;20433;-88
2024/01/08 00:05:38;;;;;;;11.10;10.00;;;10.10;99.90;;;;;;4951876;28;20055;-88
2024/01/08 00:08:06;;;;;;;10.13;9.30;;;10.10;99.90;;;;;;4951984;28;20024;-87
2024/01/08 00:10:33;;;;;;;10.52;9.55;;;10.00;99.90;;;;;;4951752;28;20044;-87
2024/01/08 00:12:59;;;;;;;13.90;9.98;;;10.00;99.90;;;;;;4951989;29;20027;-87
2024/01/08 00:15:28;;;;;;;10.30;9.30;;;10.00;99.90;;;;;;4951858;29;20099;-87
2024/01/08 00:17:55;;;;;;;12.10;10.95;;;10.10;99.90;;;;;;4951769;29;20024;-88
2024/01/08 00:20:21;;;;;;;10.93;10.00;;;10.10;99.90;;;;;;4946229;29;20034;-87
2024/01/08 00:22:48;;;;;;;10.70;9.70;;;10.20;99.90;;;;;;4932653;29;20032;-87
2024/01/08 00:25:14;;;;;;;10.95;9.93;;;10.20;99.90;;;;;;4932697;29;20123;-87
2024/01/08 00:27:41;;;;;;;11.50;9.75;;;10.20;99.90;;;;;;4932427;29;20028;-87
2024/01/08 00:30:11;;;;;;;11.30;10.30;;;10.20;99.90;;;;;;4935518;29;20040;-87
2024/01/08 00:32:37;;;;;;;18.75;10.40;;;10.20;99.90;;;;;;4951808;28;20042;-87
2024/01/08 00:35:04;;;;;;;11.25;10.10;;;10.20;99.90;;;;;;4951504;29;20378;-87
2024/01/08 00:37:32;;;;;;;14.05;10.32;;;10.10;99.90;;;;;;4951646;28;20040;-88
2024/01/08 00:39:59;;;;;;;12.13;10.10;;;10.10;99.90;;;;;;4951497;28;20533;-87
2024/01/08 00:42:25;;;;;;;11.15;9.48;;;10.10;99.90;;;;;;4951694;28;20426;-87
2024/01/08 00:44:51;;;;;;;12.55;10.18;;;10.10;99.90;;;;;;4960601;28;20059;-87
2024/01/08 00:47:21;;;;;;;11.10;10.02;;;10.20;99.90;;;;;;4974651;28;20035;-87
2024/01/08 00:49:47;;;;;;;11.45;10.00;;;10.20;99.90;;;;;;4958269;28;20039;-88
2024/01/08 00:52:13;;;;;;;10.88;9.85;;;10.20;99.90;;;;;;4974687;28;20035;-87
2024/01/08 00:54:39;;;;;;;14.90;9.77;;;10.20;99.90;;;;;;4974524;28;20034;-87
2024/01/08 00:57:06;;;;;;;10.35;9.40;;;10.20;99.90;;;;;;4974364;28;20031;-86
2024/01/08 00:59:32;;;;;;;11.25;9.90;;;10.20;99.90;;;;;;4945431;28;20051;-87
2024/01/08 01:01:59;;;;;;;11.43;9.63;;;10.20;99.90;;;;;;4970827;28;20028;-86
2024/01/08 01:04:25;;;;;;;13.90;9.73;;;10.10;99.90;;;;;;4971007;28;20075;-87
2024/01/08 01:06:52;;;;;;;10.55;9.40;;;10.00;99.90;;;;;;4970952;28;20039;-87
2024/01/08 01:09:18;;;;;;;9.98;9.18;;;9.90;99.90;;;;;;4971043;28;20031;-88
2024/01/08 01:11:44;;;;;;;16.65;8.73;;;9.80;99.90;;;;;;4970954;28;20044;-87
2024/01/08 01:14:11;;;;;;;10.50;8.50;;;9.70;99.90;;;;;;4970967;28;20102;-87
2024/01/08 01:16:37;;;;;;;9.00;8.07;;;9.50;99.90;;;;;;4970769;28;20111;-87
2024/01/08 01:19:04;;;;;;;11.77;8.23;;;9.30;99.90;;;;;;4965418;28;20024;-87
2024/01/08 01:21:30;;;;;;;12.80;7.95;;;9.10;99.90;;;;;;4954536;29;20035;-86
2024/01/08 01:23:56;;;;;;;15.88;8.27;;;9.00;99.90;;;;;;4954765;28;20028;-87
2024/01/08 01:26:23;;;;;;;12.43;8.13;;;8.90;99.90;;;;;;4954672;28;20434;-87
2024/01/08 01:28:54;;;;;;;9.73;7.20;;;8.80;99.90;;;;;;4954640;28;20091;-87
2024/01/08 01:31:20;;;;;;;9.98;6.63;;;8.70;99.90;;;;;;4954720;29;20047;-87
2024/01/08 01:33:50;;;;;;;9.02;7.05;;;8.60;99.90;;;;;;4960638;28;20434;-87
2024/01/08 01:36:16;;;;;;;9.07;6.68;;;8.50;99.90;;;;;;4954500;29;20036;-88
2024/01/08 01:38:44;;;;;;;7.32;6.38;;;8.50;99.90;;;;;;4954358;28;20114;-87
2024/01/08 01:41:11;;;;;;;7.75;5.90;;;8.40;99.90;;;;;;4954161;29;20112;-88
2024/01/08 01:43:38;;;;;;;12.55;6.10;;;8.30;99.90;;;;;;4938356;29;20043;-88
2024/01/08 01:46:16;;;;;;;6.10;5.43;;;8.30;99.90;;;;;;4970273;28;20067;-87
2024/01/08 01:48:42;;;;;;;6.63;6.07;;;8.20;99.90;;;;;;4954289;29;20032;-88
2024/01/08 01:51:09;;;;;;;6.65;5.88;;;8.20;99.90;;;;;;4938145;29;20043;-89
2024/01/08 01:53:36;;;;;;;9.02;5.25;;;8.10;99.90;;;;;;4954003;29;20087;-88
2024/01/08 01:56:02;;;;;;;11.90;5.55;;;8.10;99.90;;;;;;4953903;28;20027;-88
2024/01/08 01:58:29;;;;;;;14.15;5.22;;;8.00;99.90;;;;;;4953688;29;20103;-88
2024/01/08 02:00:56;;;;;;;13.65;5.10;;;8.00;99.90;;;;;;4938008;29;20127;-87
2024/01/08 02:03:23;;;;;;;7.43;4.57;;;8.00;99.90;;;;;;4953754;29;20031;-88
2024/01/08 02:05:49;;;;;;;7.53;4.60;;;8.00;99.90;;;;;;4954002;29;20055;-88
2024/01/08 02:08:19;;;;;;;9.95;4.38;;;8.10;99.90;;;;;;4953977;29;20391;-89
2024/01/08 02:10:46;;;;;;;6.50;4.65;;;8.10;99.90;;;;;;4953610;29;20044;-89
2024/01/08 02:13:12;;;;;;;4.18;3.88;;;8.10;99.90;;;;;;4937791;29;20594;-87
2024/01/08 02:15:39;;;;;;;9.25;4.00;;;8.10;99.90;;;;;;4969424;28;20039;-87
2024/01/08 02:18:05;;;;;;;12.05;4.13;;;8.20;99.90;;;;;;4953622;29;20121;-88
2024/01/08 02:20:35;;;;;;;8.85;3.90;;;8.30;99.90;;;;;;4937488;29;20039;-88
2024/01/08 02:23:01;;;;;;;10.63;4.22;;;8.30;99.90;;;;;;4953389;29;20107;-88
2024/01/08 02:25:30;;;;;;;7.57;4.05;;;8.30;99.90;;;;;;4969811;28;20094;-88
2024/01/08 02:27:57;;;;;;;5.18;3.78;;;8.40;99.90;;;;;;4969682;28;20032;-87
2024/01/08 02:30:23;;;;;;;4.85;3.85;;;8.40;99.90;;;;;;4937351;29;20063;-86
2024/01/08 02:32:50;;;;;;;7.15;4.13;;;8.50;99.90;;;;;;4969402;28;20042;-87
2024/01/08 02:35:16;;;;;;;12.23;4.30;;;8.50;99.90;;;;;;4946586;29;20031;-87
2024/01/08 02:37:43;;;;;;;9.50;4.32;;;8.50;99.90;;;;;;4972491;28;20031;-86
2024/01/08 02:40:09;;;;;;;5.70;4.13;;;8.60;99.90;;;;;;4972685;28;20042;-87
2024/01/08 02:42:40;;;;;;;12.50;4.22;;;8.60;99.90;;;;;;4972422;28;20469;-88
2024/01/08 02:45:08;;;;;;;9.23;4.22;;;8.60;99.90;;;;;;4972287;28;20122;-87
2024/01/08 02:47:37;;;;;;;8.55;4.10;;;8.60;99.90;;;;;;4972291;28;20429;-87
2024/01/08 02:50:08;;;;;;;7.50;4.25;;;8.70;99.90;;;;;;4972360;28;20086;-87
2024/01/08 02:52:34;;;;;;;5.75;4.13;;;8.70;99.90;;;;;;4972226;28;20039;-87
2024/01/08 02:55:02;;;;;;;8.85;4.68;;;8.80;99.90;;;;;;4971984;28;20023;-87
2024/01/08 02:57:30;;;;;;;9.82;4.82;;;8.80;99.90;;;;;;4971387;28;20116;-86
2024/01/08 02:59:57;;;;;;;9.23;4.95;;;8.90;99.90;;;;;;4971320;28;20416;-86
2024/01/08 03:02:24;;;;;;;7.03;4.45;;;9.00;99.90;;;;;;4971074;28;20118;-86
2024/01/08 03:04:52;;;;;;;8.30;4.82;;;9.00;99.90;;;;;;4971260;28;20396;-86
2024/01/08 03:07:20;;;;;;;16.58;4.68;;;9.10;99.90;;;;;;4970663;28;20058;-86
2024/01/08 03:09:47;;;;;;;8.32;5.28;;;9.10;99.90;;;;;;4971161;28;20031;-87
2024/01/08 03:12:14;;;;;;;14.55;4.78;;;9.20;99.90;;;;;;4975679;28;20039;-87
2024/01/08 03:14:41;;;;;;;8.88;5.18;;;9.20;99.90;;;;;;4973077;28;20020;-88
2024/01/08 03:17:08;;;;;;;13.43;5.00;;;9.20;99.90;;;;;;4970741;28;20046;-87
2024/01/08 03:19:35;;;;;;;5.78;4.38;;;9.20;99.90;;;;;;4971041;28;20030;-88
2024/01/08 03:22:01;;;;;;;8.73;4.88;;;9.30;99.90;;;;;;4970691;28;20090;-87
2024/01/08 03:24:28;;;;;;;11.90;5.20;;;9.30;99.90;;;;;;4970639;28;20023;-88
2024/01/08 03:26:55;;;;;;;9.15;5.18;;;9.40;99.90;;;;;;4970512;28;20059;-87
2024/01/08 03:29:21;;;;;;;9.07;5.60;;;9.60;99.90;;;;;;4960892;28;20122;-87
2024/01/08 03:31:48;;;;;;;6.70;6.13;;;9.70;99.90;;;;;;4950829;29;20409;-87
2024/01/08 03:34:14;;;;;;;7.40;6.40;;;9.80;99.90;;;;;;4951372;28;20078;-88
2024/01/08 03:36:47;;;;;;;11.00;5.90;;;9.80;99.90;;;;;;4951429;29;20035;-87
2024/01/08 03:39:15;;;;;;;8.77;6.43;;;9.80;99.90;;;;;;4951522;29;20393;-87
2024/01/08 03:41:42;;;;;;;8.93;5.82;;;9.80;99.90;;;;;;4951291;29;20026;-88
2024/01/08 03:44:09;;;;;;;8.95;5.82;;;9.70;99.90;;;;;;4951428;29;20036;-87
2024/01/08 03:46:39;;;;;;;5.97;5.55;;;9.60;99.90;;;;;;4951227;29;20504;-87
2024/01/08 03:49:07;;;;;;;6.00;5.40;;;9.60;99.90;;;;;;4967338;28;20051;-88
2024/01/08 03:51:34;;;;;;;5.78;5.28;;;9.60;99.90;;;;;;4935260;29;20035;-86
2024/01/08 03:54:04;;;;;;;8.00;5.50;;;9.50;99.90;;;;;;4935290;29;20028;-87
2024/01/08 03:56:30;;;;;;;5.90;5.50;;;9.50;99.90;;;;;;4935220;29;20023;-86
2024/01/08 03:58:56;;;;;;;6.90;5.63;;;9.40;99.90;;;;;;4887040;28;1952417;-87
2024/01/08 04:01:23;;;;;;;5.88;5.30;;;9.40;99.90;;;;;;4951961;29;20032;-86
2024/01/08 04:03:50;;;;;;;6.55;5.57;;;9.50;99.90;;;;;;4967919;28;20024;-88
2024/01/08 04:06:16;;;;;;;5.75;5.43;;;9.50;99.90;;;;;;4935863;29;20024;-87
2024/01/08 04:08:43;;;;;;;7.53;5.70;;;9.50;99.90;;;;;;4967502;28;20019;-87
2024/01/08 04:11:09;;;;;;;7.75;6.22;;;9.50;99.90;;;;;;4951574;28;20142;-87
2024/01/08 04:13:38;;;;;;;6.55;5.53;;;9.50;99.90;;;;;;4951690;29;20027;-88
2024/01/08 04:16:05;;;;;;;5.50;5.03;;;9.50;99.90;;;;;;4951316;29;20040;-89
2024/01/08 04:18:32;;;;;;;7.13;4.60;;;9.60;99.90;;;;;;4951465;28;20116;-87
2024/01/08 04:20:58;;;;;;;8.88;5.00;;;9.60;99.90;;;;;;4950787;29;20090;-88
2024/01/08 04:23:25;;;;;;;12.20;4.70;;;9.70;99.90;;;;;;4951571;28;20115;-87
2024/01/08 04:25:51;;;;;;;5.28;4.88;;;9.70;99.90;;;;;;4951624;29;20118;-89
2024/01/08 04:28:21;;;;;;;13.32;5.55;;;9.70;99.90;;;;;;4951685;28;20038;-88
2024/01/08 04:30:47;;;;;;;9.13;5.07;;;9.70;99.90;;;;;;4951334;29;20039;-90
2024/01/08 04:33:13;;;;;;;7.07;4.68;;;9.70;99.90;;;;;;4951863;28;20028;-87
2024/01/08 04:35:39;;;;;;;13.82;5.15;;;9.70;99.90;;;;;;4951604;28;20027;-86
2024/01/08 04:38:09;;;;;;;5.00;4.53;;;9.70;99.90;;;;;;4951437;29;20023;-86
2024/01/08 04:40:35;;;;;;;9.40;5.40;;;9.60;99.90;;;;;;4951201;29;20094;-89
2024/01/08 04:43:02;;;;;;;9.43;5.40;;;9.60;99.90;;;;;;4951766;28;20027;-86
2024/01/08 04:45:30;;;;;;;15.93;14.77;;;9.50;99.90;;;;;;4951371;28;20043;-86
2024/01/08 04:47:56;;;;;;;15.88;14.63;;;9.40;99.90;;;;;;4935357;29;20019;-85
2024/01/08 04:50:23;;;;;;;14.35;13.20;;;9.40;99.90;;;;;;4952185;28;20032;-87
2024/01/08 04:52:49;;;;;;;15.00;13.60;;;9.40;99.90;;;;;;4955821;29;20058;-87
2024/01/08 04:55:16;;;;;;;14.38;13.02;;;9.40;99.90;;;;;;4951552;29;20027;-88
2024/01/08 04:57:42;;;;;;;14.55;12.68;;;9.30;99.90;;;;;;4951331;28;20576;-87
2024/01/08 05:00:11;;;;;;;13.18;12.27;;;9.30;99.90;;;;;;4951612;28;20046;-86
2024/01/08 05:02:37;;;;;;;14.00;13.10;;;9.20;99.90;;;;;;4951335;29;20028;-86
2024/01/08 05:05:04;;;;;;;13.80;13.10;;;9.20;99.90;;;;;;4951094;28;20086;-87
2024/01/08 05:07:31;;;;;;;14.25;13.27;;;9.10;99.90;;;;;;4951152;28;20079;-86
2024/01/08 05:09:58;;;;;;;13.57;12.82;;;9.10;99.90;;;;;;4939134;29;20224;-85
2024/01/08 05:12:25;;;;;;;13.98;12.90;;;9.10;99.90;;;;;;4931902;29;20088;-86
2024/01/08 05:14:51;;;;;;;13.55;12.63;;;9.00;99.90;;;;;;4932214;29;20031;-85
2024/01/08 05:17:20;;;;;;;13.05;12.38;;;9.10;99.90;;;;;;4932060;29;20034;-88
2024/01/08 05:19:47;;;;;;;13.77;12.70;;;9.10;99.90;;;;;;4932276;29;20032;-86
2024/01/08 05:22:13;;;;;;;13.20;12.02;;;9.10;99.90;;;;;;4932024;29;20036;-88
2024/01/08 05:24:39;;;;;;;12.75;11.80;;;9.00;99.90;;;;;;4932003;29;20421;-87
2024/01/08 05:27:06;;;;;;;12.38;11.70;;;9.00;99.90;;;;;;4931874;29;20478;-87
2024/01/08 05:29:35;;;;;;;12.70;11.80;;;9.00;99.90;;;;;;4918687;29;20123;-86
2024/01/08 05:32:01;;;;;;;13.10;12.00;;;9.00;99.90;;;;;;4905134;29;20560;-86
2024/01/08 05:34:27;;;;;;;12.27;11.55;;;9.10;99.90;;;;;;4921678;29;20122;-86
2024/01/08 05:36:54;;;;;;;12.10;11.30;;;9.10;99.90;;;;;;4905631;29;20051;-86
2024/01/08 05:39:23;;;;;;;12.38;11.57;;;9.30;99.90;;;;;;4921594;29;20072;-87
2024/01/08 05:41:49;;;;;;;12.38;11.52;;;9.30;99.90;;;;;;4905994;29;20019;-86
2024/01/08 05:44:16;;;;;;;13.13;11.90;;;9.20;99.90;;;;;;4921788;29;20146;-87
2024/01/08 05:46:43;;;;;;;12.75;11.55;;;9.30;99.90;;;;;;4905882;29;20030;-88
2024/01/08 05:49:10;;;;;;;12.35;11.60;;;9.30;99.90;;;;;;4921490;29;20051;-87
2024/01/08 05:51:37;;;;;;;13.23;11.80;;;9.30;99.90;;;;;;4905953;29;20040;-88
2024/01/08 05:54:06;;;;;;;15.48;12.10;;;9.30;99.90;;;;;;4921593;29;20035;-88
2024/01/08 05:56:33;;;;;;;12.63;11.88;;;9.30;99.90;;;;;;4921544;29;20039;-87
2024/01/08 05:58:59;;;;;;;13.48;12.40;;;9.30;99.90;;;;;;4921580;29;20065;-88
2024/01/08 06:01:26;;;;;;;12.77;11.80;;;9.30;99.90;;;;;;4903661;29;20036;-87
2024/01/08 06:03:53;;;;;;;15.52;13.63;;;9.20;99.90;;;;;;4934925;29;20032;-85
2024/01/08 06:06:19;;;;;;;13.70;12.60;;;9.20;99.90;;;;;;4934755;29;20079;-86
2024/01/08 06:08:45;;;;;;;13.95;12.63;;;9.10;99.90;;;;;;4934652;29;20185;-87
2024/01/08 06:11:13;;;;;;;13.82;12.98;;;9.10;99.90;;;;;;4946288;28;20062;-88
2024/01/08 06:13:40;;;;;;;13.63;12.82;;;9.10;99.90;;;;;;4938004;29;20028;-88
2024/01/08 06:16:06;;;;;;;14.20;12.90;;;9.00;99.90;;;;;;4937225;29;20498;-85
2024/01/08 06:18:33;;;;;;;13.45;12.40;;;9.00;99.90;;;;;;4920920;29;20516;-86
2024/01/08 06:20:59;;;;;;;14.00;12.80;;;8.90;99.90;;;;;;4921187;29;20040;-86
2024/01/08 06:23:26;;;;;;;13.80;12.75;;;8.90;99.90;;;;;;4921062;29;20485;-87
2024/01/08 06:25:56;;;;;;;13.23;12.32;;;8.80;99.90;;;;;;4920806;29;20040;-85
2024/01/08 06:28:22;;;;;;;13.38;12.48;;;8.70;99.90;;;;;;4920873;29;20446;-85
2024/01/08 06:30:49;;;;;;;13.93;12.60;;;8.70;99.90;;;;;;4929179;29;20040;-86
2024/01/08 06:33:16;;;;;;;12.80;12.00;;;8.70;99.90;;;;;;4930505;29;20046;-85
2024/01/08 06:35:42;;;;;;;12.88;11.77;;;8.70;99.90;;;;;;4920849;29;20060;-85
2024/01/08 06:38:09;;;;;;;13.07;11.90;;;8.70;99.90;;;;;;4920533;29;20139;-86
2024/01/08 06:40:36;;;;;;;13.45;12.18;;;8.80;99.90;;;;;;4920405;29;20028;-86
2024/01/08 06:43:05;;;;;;;12.10;11.48;;;8.80;99.90;;;;;;4935451;29;20031;-86
2024/01/08 06:45:32;;;;;;;12.68;11.88;;;8.90;99.90;;;;;;4920924;29;20036;-86
2024/01/08 06:47:58;;;;;;;12.38;11.68;;;9.00;99.90;;;;;;4937126;29;20040;-86
2024/01/08 06:50:25;;;;;;;12.50;11.57;;;9.10;99.90;;;;;;4969161;28;20123;-87
2024/01/08 06:52:52;;;;;;;12.23;11.13;;;9.30;99.90;;;;;;4969155;28;20036;-86
2024/01/08 06:55:19;;;;;;;11.65;10.50;;;9.60;99.90;;;;;;4969083;28;20027;-86
2024/01/08 06:57:48;;;;;;;10.35;9.60;;;9.70;99.90;;;;;;4969750;28;20043;-86
2024/01/08 07:00:15;;;;;;;10.30;9.30;;;9.80;99.90;;;;;;4968848;28;20049;-87
2024/01/08 07:02:42;;;;;;;11.07;10.15;;;10.20;99.90;;;;;;4968848;28;20130;-86
2024/01/08 07:05:09;;;;;;;10.95;9.98;;;10.40;99.90;;;;;;4968795;28;20032;-87
2024/01/08 07:07:37;;;;;;;13.00;10.43;;;10.60;99.90;;;;;;4969138;28;20099;-87
2024/01/08 07:10:07;;;;;;;10.25;9.38;;;10.80;99.90;;;;;;4952726;28;20038;-86
2024/01/08 07:12:33;;;;;;;12.20;10.98;;;11.00;99.90;;;;;;4968803;28;20531;-86
2024/01/08 07:15:04;;;;;;;14.00;13.10;;;11.00;99.90;;;;;;4968502;28;20437;-86
2024/01/08 07:17:31;;;;;;;14.88;13.50;;;11.10;99.90;;;;;;4968687;28;20031;-86
2024/01/08 07:19:57;;;;;;;13.55;12.20;;;11.20;99.90;;;;;;4968799;28;20397;-86
2024/01/08 07:22:24;;;;;;;12.10;11.00;;;11.50;99.90;;;;;;4968663;28;20024;-87
2024/01/08 07:24:50;;;;;;;13.10;12.10;;;11.70;99.90;;;;;;4968392;28;20110;-86
2024/01/08 07:27:17;;;;;;;15.30;12.98;;;11.90;99.90;;;;;;4968599;28;20047;-87
2024/01/08 07:29:44;;;;;;;13.65;12.85;;;12.00;99.90;;;;;;4968740;28;20028;-87
2024/01/08 07:32:12;;;;;;;15.70;13.70;;;12.20;99.90;;;;;;4968507;28;20071;-87
2024/01/08 07:34:39;;;;;;;15.00;14.00;;;12.30;99.90;;;;;;4968293;28;20564;-87
2024/01/08 07:37:05;;;;;;;15.50;14.48;;;12.50;99.90;;;;;;4968217;28;20490;-88
2024/01/08 07:39:32;;;;;;;18.42;16.77;;;12.80;99.90;;;;;;4968495;28;20028;-88
2024/01/08 07:41:58;;;;;;;18.90;17.25;;;12.90;99.90;;;;;;4952256;29;20430;-87
2024/01/08 07:44:25;;;;;;;18.60;17.20;;;13.20;99.90;;;;;;4952462;29;20170;-88
2024/01/08 07:46:53;;;;;;;20.42;18.55;;;13.50;99.90;;;;;;4968359;28;20028;-88
2024/01/08 07:49:23;;;;;;;20.73;18.85;;;13.60;99.90;;;;;;4968326;28;20028;-88
2024/01/08 07:51:50;;;;;;;21.83;19.65;;;13.90;99.90;;;;;;4968049;28;20339;-88
2024/01/08 07:54:16;;;;;;;22.60;20.30;;;14.00;99.90;;;;;;4967820;28;20492;-88
2024/01/08 07:56:43;;;;;;;23.27;21.13;;;14.20;99.90;;;;;;4967959;28;20114;-88
2024/01/08 07:59:09;;;;;;;24.88;22.63;;;14.40;99.90;;;;;;4967842;28;20059;-87
2024/01/08 08:01:36;;;;;;;24.85;22.42;;;14.40;99.90;;;;;;4968098;28;20036;-88
2024/01/08 08:04:04;;;;;;;26.67;22.88;;;14.30;99.90;;;;;;4968174;28;20023;-87
2024/01/08 08:06:30;;;;;;;24.17;22.13;;;14.30;99.90;;;;;;4968279;28;20094;-88
2024/01/08 08:08:57;;;;;;;24.38;22.25;;;14.30;99.90;;;;;;4956903;28;20028;-88
2024/01/08 08:11:24;;;;;;;23.75;21.27;;;14.10;99.90;;;;;;4979473;28;20718;-89
2024/01/08 08:13:51;;;;;;;24.42;21.85;;;14.30;99.90;;;;;;4956600;28;20023;-88
2024/01/08 08:16:18;;;;;;;25.92;21.20;;;14.20;99.90;;;;;;4968026;28;20043;-87
2024/01/08 08:18:47;;;;;;;23.15;20.92;;;14.10;99.90;;;;;;4951743;28;20034;-88
2024/01/08 08:21:14;;;;;;;21.65;19.70;;;14.10;99.90;;;;;;4946958;29;20063;-89
2024/01/08 08:23:40;;;;;;;20.92;19.20;;;13.90;99.90;;;;;;4935904;29;20024;-88
2024/01/08 08:26:07;;;;;;;21.48;19.33;;;13.90;99.90;;;;;;4951706;28;20035;-89
2024/01/08 08:28:34;;;;;;;20.58;18.75;;;13.80;99.90;;;;;;4952484;28;20023;-88
2024/01/08 08:31:01;;;;;;;22.40;19.02;;;13.90;99.90;;;;;;4951507;28;20055;-89
2024/01/08 08:33:27;;;;;;;20.60;18.58;;;13.90;99.90;;;;;;4935637;29;20087;-88
2024/01/08 08:35:53;;;;;;;21.02;19.05;;;14.20;99.90;;;;;;4935406;29;20035;-87
2024/01/08 08:38:21;;;;;;;22.20;19.55;;;14.50;99.90;;;;;;4935436;29;20020;-86
2024/01/08 08:40:48;;;;;;;30.13;20.30;;;14.80;99.90;;;;;;4935568;29;20032;-87
2024/01/08 08:43:14;;;;;;;21.17;19.42;;;15.20;99.90;;;;;;4935559;29;20050;-87
2024/01/08 08:45:41;;;;;;;21.52;19.65;;;15.30;99.90;;;;;;4941981;29;20023;-87
2024/01/08 08:48:09;;;;;;;21.50;19.60;;;15.20;99.90;;;;;;4954624;28;20508;-86
2024/01/08 08:50:36;;;;;;;21.17;19.52;;;15.20;99.90;;;;;;4954612;28;20102;-87
2024/01/08 08:53:02;;;;;;;21.48;19.77;;;15.20;99.90;;;;;;4954496;28;20023;-87
2024/01/08 08:55:29;;;;;;;22.13;20.02;;;15.10;99.90;;;;;;4970278;28;20031;-87
2024/01/08 08:57:55;;;;;;;22.05;20.17;;;15.10;99.90;;;;;;4954415;28;20432;-87
2024/01/08 09:00:22;;;;;;;21.42;19.83;;;15.10;99.90;;;;;;4970710;28;20042;-87
2024/01/08 09:02:50;;;;;;;22.30;20.30;;;15.30;99.90;;;;;;4954451;28;20031;-87
2024/01/08 09:05:17;;;;;;;21.48;19.70;;;15.30;99.90;;;;;;4970299;28;20066;-87
2024/01/08 09:07:47;;;;;;;22.10;20.25;;;15.40;99.90;;;;;;4958480;28;20054;-88
2024/01/08 09:10:15;;;;;;;21.95;20.15;;;15.40;99.90;;;;;;4974492;28;20035;-90
2024/01/08 09:12:42;;;;;;;21.88;19.95;;;15.50;99.90;;;;;;4958414;28;20054;-90
2024/01/08 09:15:09;;;;;;;22.30;20.38;;;15.40;99.90;;;;;;4974506;28;20031;-88
2024/01/08 09:17:35;;;;;;;22.33;20.30;;;15.20;99.90;;;;;;4958873;29;20039;-92
2024/01/08 09:20:02;;;;;;;24.55;20.80;;;15.30;99.90;;;;;;4977983;28;20031;-92
2024/01/08 09:22:28;;;;;;;21.73;20.10;;;15.30;99.90;;;;;;4960401;28;20027;-93
2024/01/08 09:24:55;;;;;;;22.77;20.95;;;15.30;99.90;;;;;;4981369;28;20035;-85
2024/01/08 09:27:23;;;;;;;20.95;19.38;;;15.20;99.90;;;;;;4959260;28;20019;-91
2024/01/08 09:29:49;;;;;;;21.50;19.83;;;15.10;99.90;;;;;;4977375;28;20126;-90
2024/01/08 09:32:16;;;;;;;20.92;19.35;;;15.00;99.90;;;;;;4983163;28;20034;-91
2024/01/08 09:34:45;;;;;;;20.73;19.33;;;15.00;99.90;;;;;;4981899;28;20023;-92
2024/01/08 09:37:23;;;;;;;;;;;;;;;;;;;;;
2024/01/08 09:39:49;;;;;;;21.48;19.70;;;15.00;99.90;;;;;;4974461;28;20031;-91
2024/01/08 09:42:16;;;;;;;21.10;19.63;;;15.00;99.90;;;;;;4960255;28;20110;-92
2024/01/08 09:44:48;;;;;;;22.15;20.10;;;15.10;99.90;;;;;;4973770;28;20024;-91
2024/01/08 09:47:16;;;;;;;21.10;19.50;;;15.30;99.90;;;;;;4974332;28;20035;-92
2024/01/08 09:50:53;;;;;;;;;;;;;;;;;;;;;
2024/01/08 09:54:02;;;;;;;21.50;19.73;;;15.30;99.90;;;;;;4907255;29;20093;-93
2024/01/08 09:56:55;;;;;;;;;;;;;;;;;;;;;
2024/01/08 09:59:22;;;;;;;21.98;20.05;;;15.30;99.90;;;;;;4900900;29;20040;-91
2024/01/08 10:01:59;;;;;;;22.55;20.25;;;15.30;99.90;;;;;;4902733;29;20132;-89
2024/01/08 10:04:26;;;;;;;21.90;19.90;;;15.20;99.90;;;;;;4912267;29;20064;-89
2024/01/08 10:07:12;;;;;;;22.40;20.38;;;15.30;99.90;;;;;;4883871;29;20037;-92
2024/01/08 10:09:41;;;;;;;21.58;19.88;;;15.50;99.90;;;;;;4883887;29;20048;-92
2024/01/08 10:12:14;;;;;;;21.83;19.98;;;15.50;99.90;;;;;;4900953;29;20076;-88
2024/01/08 10:14:41;;;;;;;22.23;20.55;;;15.60;99.90;;;;;;4884194;29;20091;-90
2024/01/08 10:17:07;;;;;;;21.98;20.27;;;15.70;99.90;;;;;;4884247;29;20139;-91
2024/01/08 10:19:33;;;;;;;22.73;20.70;;;15.70;99.90;;;;;;4899962;29;20037;-91
2024/01/08 10:22:17;;;;;;;22.40;20.30;;;15.80;99.90;;;;;;4884104;29;20025;-89
2024/01/08 10:24:46;;;;;;;22.35;20.45;;;15.70;99.90;;;;;;4883776;29;20061;-88
2024/01/08 10:27:13;;;;;;;22.73;20.70;;;15.60;99.90;;;;;;4884210;29;20032;-90
2024/01/08 10:29:41;;;;;;;22.50;20.60;;;15.50;99.90;;;;;;4883583;29;20037;-90
2024/01/08 10:32:12;;;;;;;21.83;20.02;;;15.50;99.90;;;;;;4915108;29;20038;-88
2024/01/08 10:34:41;;;;;;;22.20;20.30;;;15.50;99.90;;;;;;4919047;29;20489;-89
2024/01/08 10:37:12;;;;;;;22.42;20.27;;;15.50;99.90;;;;;;4950649;29;20040;-90
2024/01/08 10:39:40;;;;;;;26.40;23.88;;;15.60;99.90;;;;;;4950664;29;20078;-89
2024/01/08 10:42:06;;;;;;;24.50;22.20;;;15.60;99.90;;;;;;4950338;29;20025;-88
2024/01/08 10:44:33;;;;;;;21.98;20.25;;;15.50;99.90;;;;;;4950167;29;20068;-88
2024/01/08 10:47:24;;;;;;;23.20;21.13;;;15.40;99.90;;;;;;4950496;29;20024;-89
2024/01/08 10:49:56;;;;;;;23.88;21.92;;;15.50;99.90;;;;;;4935800;29;20064;-91
2024/01/08 10:52:31;;;;;;;23.65;21.85;;;15.40;99.90;;;;;;4950074;29;20478;-88
2024/01/08 10:55:00;;;;;;;24.88;22.83;;;15.40;99.90;;;;;;4950426;29;20075;-89
2024/01/08 10:57:57;;;;;;;21.55;19.83;;;15.50;99.90;;;;;;4949767;29;20091;-89
2024/01/08 11:00:26;;;;;;;20.83;19.30;;;15.50;99.90;;;;;;4945890;29;20031;-89
2024/01/08 11:02:53;;;;;;;20.20;18.67;;;15.50;99.90;;;;;;4969320;28;20035;-89
2024/01/08 11:05:23;;;;;;;20.40;18.60;;;15.40;99.90;;;;;;4969360;28;20040;-89
2024/01/08 11:07:51;;;;;;;20.08;18.33;;;15.40;99.90;;;;;;4937115;29;20031;-90
2024/01/08 11:10:21;;;;;;;21.08;19.08;;;15.30;99.90;;;;;;4952796;28;20118;-89
2024/01/08 11:12:55;;;;;;;19.50;17.92;;;15.30;99.90;;;;;;4952749;28;20032;-88
2024/01/08 11:15:27;;;;;;;21.27;18.95;;;15.30;99.90;;;;;;4952961;28;20508;-90
2024/01/08 11:17:56;;;;;;;19.10;17.80;;;15.30;99.90;;;;;;4952552;28;20448;-88
2024/01/08 11:20:49;;;;;;;19.50;17.73;;;15.20;99.90;;;;;;4952707;28;20028;-88
2024/01/08 11:23:42;;;;;;;19.42;18.08;;;15.00;99.90;;;;;;4936840;29;20127;-88
2024/01/08 11:26:14;;;;;;;19.75;18.13;;;14.90;99.90;;;;;;4951065;28;20509;-89
2024/01/08 11:28:41;;;;;;;29.38;23.63;;;14.80;99.90;;;;;;4936476;29;20039;-89
2024/01/08 11:31:42;;;;;;;23.88;19.92;;;14.60;99.90;;;;;;4936595;29;20043;-89
2024/01/08 11:34:46;;;;;;;43.35;27.95;;;14.50;99.90;;;;;;4936335;29;20515;-90
2024/01/08 11:37:34;;;;;;;19.55;17.40;;;14.50;99.90;;;;;;4951854;29;20040;-88
2024/01/08 11:40:07;;;;;;;18.83;16.75;;;14.60;99.90;;;;;;4936428;29;20032;-89
2024/01/08 11:42:34;;;;;;;17.80;16.35;;;14.70;99.90;;;;;;4936543;29;20040;-89
2024/01/08 11:45:03;;;;;;;18.20;16.75;;;14.90;99.90;;;;;;4936305;29;20035;-89
2024/01/08 11:47:33;;;;;;;18.45;17.05;;;14.90;99.90;;;;;;4936705;29;20027;-90
2024/01/08 11:50:00;;;;;;;19.52;17.50;;;14.80;99.90;;;;;;4952220;28;20027;-89
2024/01/08 11:52:27;;;;;;;19.02;17.40;;;14.90;99.90;;;;;;4952176;29;20497;-89
2024/01/08 11:54:57;;;;;;;18.15;16.75;;;14.90;99.90;;;;;;4936096;29;20095;-88
2024/01/08 11:57:24;;;;;;;18.90;17.30;;;14.90;99.90;;;;;;4951640;29;20127;-89
2024/01/08 11:59:50;;;;;;;19.30;17.60;;;14.90;99.90;;;;;;4936326;29;20152;-88
2024/01/08 12:02:19;;;;;;;19.55;17.67;;;14.90;99.90;;;;;;4935991;29;20127;-89
2024/01/08 12:04:54;;;;;;;19.50;17.83;;;15.00;99.90;;;;;;4935888;29;20098;-88
2024/01/08 12:07:22;;;;;;;19.50;17.88;;;15.20;99.90;;;;;;4935912;29;20036;-89
2024/01/08 12:09:49;;;;;;;21.42;17.75;;;15.10;99.90;;;;;;4936087;29;20036;-88
2024/01/08 12:12:17;;;;;;;19.33;17.95;;;15.20;99.90;;;;;;4951935;29;20039;-89
2024/01/08 12:14:45;;;;;;;19.55;18.02;;;15.30;99.90;;;;;;4935914;29;20028;-89
2024/01/08 12:17:13;;;;;;;21.25;19.55;;;15.30;99.90;;;;;;4951860;28;20036;-88
2024/01/08 12:19:54;;;;;;;19.42;18.10;;;15.30;99.90;;;;;;4951766;28;20028;-90
2024/01/08 12:22:22;;;;;;;19.35;17.75;;;15.30;99.90;;;;;;4952080;28;20032;-89
2024/01/08 12:24:53;;;;;;;19.52;17.60;;;15.30;99.90;;;;;;4952029;29;20027;-89
2024/01/08 12:27:22;;;;;;;18.65;17.30;;;15.40;99.90;;;;;;4951723;28;20039;-89
2024/01/08 12:29:50;;;;;;;18.60;16.90;;;15.30;99.90;;;;;;4951590;28;20075;-89
2024/01/08 12:32:20;;;;;;;18.88;17.52;;;15.30;99.90;;;;;;4951694;28;20094;-89
2024/01/08 12:34:47;;;;;;;19.08;17.33;;;15.20;99.90;;;;;;4951747;28;20046;-89
2024/01/08 12:37:16;;;;;;;19.55;18.10;;;15.20;99.90;;;;;;4951830;28;20047;-90
2024/01/08 12:39:44;;;;;;;20.40;18.80;;;15.30;99.90;;;;;;4951788;28;20034;-88
2024/01/08 12:42:16;;;;;;;20.95;18.92;;;15.50;99.90;;;;;;4954307;28;20482;-88
2024/01/08 12:44:45;;;;;;;20.02;18.40;;;15.40;99.90;;;;;;4971964;28;20060;-89
2024/01/08 12:47:12;;;;;;;19.38;17.98;;;15.60;99.90;;;;;;4955536;28;20028;-89